Big Trout Lake Airport
CYTL : now visible

Airfield :











YOU CAN JOIN US ON...

 
LOGIN :

Register | Disclaimer

   EN    FR    IT 

 









Legend :    VFR   Marginal VFR   IFR   Intensive IFR   Very Intensive IFR
Visi :
Ceiling :
>= 8 km
>= 3000ft
5 to 8 km
1000 to 3000 ft
1500m to 5 km
500 to 1000 ft
800 to 1500m
200 to 500 ft
< 800m
< 200 ft
Symbols :   Thunderstorms  Fog  Heavy snow  Heavy precipitations  Wind > 20 kt






- Airport Elevation : 729 ft
- IATA code : YTL


CYTL - Big Trout Lake

CURRENT METAR :
  • 190500Z AUTO 28007KT 9SM CLR M29/M32 A3024 RMK SLP274

EXPIRED METARs :
  • 190400Z AUTO 29007KT 9SM CLR M29/M32 A3023 RMK SLP271
  • 190300Z AUTO 31008KT 9SM CLR M28/M32 A3021 RMK SLP265

TAF TAF CYTL
Valid from the 19 at 02:00 until the 19 at 14:00 UTC


190138Z 1902/1914 31010G20KT P6SM FEW020 RMK FCST BASED ON AUTO OBS. NXT FCST BY 190800Z



MET'MAP, your aeronautical weather chart ! - Copyright ORBIFLY December 2007 - Disclaimer

ORBIFLY MET'MAP TEAM :

Programming & Development : Alexandra Zaïnal
Concept & original design : Baudouin d'Aumeries
Assistance for programming : Marc-Olivier Méhu
Technical & hardware support : Manuel Goepfert

Contact : metmap@orbifly.com




SOURCES & CREDITS :

   NOAA       Earth
Advisory